Time;durP1;ratioP1;P1;durP2;ratioP2;P2;SDS_P1;SDS_P2;PMS_P1;PMS_P2;Temp;Humidity;BMP_temperature;BMP_pressure;BME280_temperature;BME280_humidity;BME280_pressure;Samples;Min_cycle;Max_cycle;Signal;HPM_P1;HPM_P2
2022/01/09 00:00:26;;;;;;;29.77;15.40;;;;;;;7.77;100.00;98773.00;5048075;28;20204;-73
2022/01/09 00:02:53;;;;;;;27.70;14.83;;;;;;;7.76;100.00;98767.06;5037366;28;20687;-73
2022/01/09 00:05:20;;;;;;;33.70;15.03;;;;;;;7.73;100.00;98766.31;5043107;28;20846;-73
2022/01/09 00:07:48;;;;;;;35.63;16.17;;;;;;;7.72;100.00;98765.47;5036936;28;20196;-72
2022/01/09 00:10:15;;;;;;;35.70;16.07;;;;;;;7.74;100.00;98773.09;5042293;28;20200;-73
2022/01/09 00:12:42;;;;;;;32.63;17.07;;;;;;;7.71;100.00;98762.97;5049758;28;20243;-72
2022/01/09 00:15:11;;;;;;;32.67;18.30;;;;;;;7.75;100.00;98767.13;5049450;28;20220;-73
2022/01/09 00:17:38;;;;;;;33.70;16.37;;;;;;;7.69;100.00;98759.66;5045111;28;20699;-73
2022/01/09 00:20:07;;;;;;;42.40;18.83;;;;;;;7.67;100.00;98746.91;5049213;28;20221;-73
2022/01/09 00:22:39;;;;;;;37.67;19.43;;;;;;;7.76;100.00;98756.00;5050512;28;20639;-73
2022/01/09 00:25:07;;;;;;;46.67;22.40;;;;;;;7.74;100.00;98757.78;5048513;28;20311;-73
2022/01/09 00:27:36;;;;;;;49.63;22.87;;;;;;;7.71;100.00;98753.59;5041052;28;20200;-73
2022/01/09 00:30:04;;;;;;;45.07;22.00;;;;;;;7.64;100.00;98751.28;5034232;28;20693;-72
2022/01/09 00:32:32;;;;;;;45.57;20.57;;;;;;;7.62;100.00;98770.91;5037111;28;20213;-73
2022/01/09 00:34:59;;;;;;;49.00;21.70;;;;;;;7.59;100.00;98758.22;5030982;28;20217;-72
2022/01/09 00:37:25;;;;;;;45.40;20.87;;;;;;;7.62;100.00;98758.13;5041799;28;20597;-73
2022/01/09 00:39:52;;;;;;;39.20;20.57;;;;;;;7.55;100.00;98746.44;5050630;28;20583;-73
2022/01/09 00:42:19;;;;;;;38.70;18.97;;;;;;;7.49;100.00;98746.63;5047971;28;20248;-73
2022/01/09 00:44:46;;;;;;;57.73;20.37;;;;;;;7.46;100.00;98744.16;5051207;28;20250;-73
2022/01/09 00:47:13;;;;;;;50.00;22.87;;;;;;;7.45;100.00;98745.03;5050584;28;20205;-73
2022/01/09 00:49:42;;;;;;;45.93;20.87;;;;;;;7.41;100.00;98744.25;5040437;28;20581;-73
2022/01/09 00:52:09;;;;;;;48.90;21.83;;;;;;;7.28;100.00;98727.63;5036171;28;20331;-73
2022/01/09 00:54:35;;;;;;;44.73;20.87;;;;;;;7.36;100.00;98741.88;5032779;28;20217;-74
2022/01/09 00:57:02;;;;;;;47.67;21.57;;;;;;;7.35;100.00;98740.19;5049232;28;20234;-72
2022/01/09 00:59:29;;;;;;;55.50;21.17;;;;;;;7.35;100.00;98734.25;5041586;28;20696;-73
2022/01/09 01:01:56;;;;;;;47.60;21.57;;;;;;;7.36;100.00;98726.56;5033428;28;20635;-73
2022/01/09 01:04:23;;;;;;;40.73;21.63;;;;;;;7.35;100.00;98727.44;5032833;28;20616;-73
2022/01/09 01:06:51;;;;;;;47.67;22.43;;;;;;;7.34;100.00;98723.19;5038271;28;20204;-73
2022/01/09 01:09:20;;;;;;;53.43;21.17;;;;;;;7.38;100.00;98718.84;5042832;28;20222;-73
2022/01/09 01:11:47;;;;;;;51.67;22.50;;;;;;;7.38;100.00;98717.16;5032306;28;20665;-73
2022/01/09 01:14:14;;;;;;;48.70;21.07;;;;;;;7.34;100.00;98715.56;5032236;28;20205;-71
2022/01/09 01:16:41;;;;;;;45.77;20.60;;;;;;;7.37;100.00;98709.53;5034256;28;20207;-73
2022/01/09 01:19:10;;;;;;;59.30;23.43;;;;;;;7.42;100.00;98710.25;5038060;28;20209;-73
2022/01/09 01:21:37;;;;;;;52.53;22.40;;;;;;;7.43;100.00;98706.00;5041686;28;20216;-73
2022/01/09 01:24:06;;;;;;;45.57;21.47;;;;;;;7.42;100.00;98709.41;5050574;28;20209;-73
2022/01/09 01:26:33;;;;;;;49.23;21.73;;;;;;;7.36;100.00;98716.38;5049976;28;20596;-73
2022/01/09 01:28:59;;;;;;;48.17;20.97;;;;;;;7.37;100.00;98714.63;5050517;28;20200;-72
2022/01/09 01:31:26;;;;;;;52.30;22.27;;;;;;;7.34;100.00;98715.56;5048540;28;20212;-73
2022/01/09 01:33:53;;;;;;;50.40;22.80;;;;;;;7.35;100.00;98707.03;5045809;28;20228;-73
2022/01/09 01:36:20;;;;;;;52.53;22.60;;;;;;;7.34;100.00;98700.25;5046518;28;20215;-72
2022/01/09 01:38:47;;;;;;;57.77;25.53;;;;;;;7.32;100.00;98699.47;5041564;28;20246;-73
2022/01/09 01:41:15;;;;;;;69.97;25.57;;;;;;;7.27;100.00;98693.66;5049812;28;20208;-72
2022/01/09 01:43:42;;;;;;;61.87;24.57;;;;;;;7.27;100.00;98693.66;5050143;28;20193;-73
2022/01/09 01:46:08;;;;;;;60.17;25.20;;;;;;;7.31;100.00;98691.84;5050230;28;20687;-73
2022/01/09 01:48:35;;;;;;;57.23;23.57;;;;;;;7.32;100.00;98694.38;5039185;28;20211;-72
2022/01/09 01:51:02;;;;;;;64.97;25.53;;;;;;;7.36;100.00;98690.88;5050198;28;20201;-73
2022/01/09 01:53:29;;;;;;;69.00;24.70;;;;;;;7.35;100.00;98689.19;5049332;28;20197;-73
2022/01/09 01:55:59;;;;;;;71.00;29.33;;;;;;;7.16;100.00;98675.28;5046065;28;20631;-73
2022/01/09 01:58:31;;;;;;;77.27;29.37;;;;;;;7.13;100.00;98672.84;5041943;28;20215;-73
2022/01/09 02:00:58;;;;;;;78.97;30.20;;;;;;;7.18;100.00;98680.34;5041466;28;20232;-73
2022/01/09 02:03:24;;;;;;;110.70;33.83;;;;;;;7.20;100.00;98669.25;5042158;28;20220;-73
2022/01/09 02:05:51;;;;;;;90.67;31.60;;;;;;;7.25;100.00;98664.84;5041068;28;20662;-73
2022/01/09 02:08:18;;;;;;;95.30;31.73;;;;;;;7.24;100.00;98658.06;5037017;28;20307;-73
2022/01/09 02:10:45;;;;;;;89.50;31.87;;;;;;;7.20;100.00;98664.16;5040799;28;20206;-73
2022/01/09 02:13:13;;;;;;;86.10;31.83;;;;;;;7.11;100.00;98649.09;5038776;28;20196;-73
2022/01/09 02:15:44;;;;;;;95.30;30.70;;;;;;;7.18;100.00;98655.69;5047556;28;20204;-73
2022/01/09 02:18:14;;;;;;;76.43;29.70;;;;;;;7.19;100.00;98652.28;5039751;28;20197;-73
2022/01/09 02:20:42;;;;;;;94.23;31.07;;;;;;;7.14;100.00;98632.91;5042308;28;20224;-72
2022/01/09 02:23:10;;;;;;;107.33;33.90;;;;;;;7.13;100.00;98637.16;5039962;28;20204;-73
2022/01/09 02:25:39;;;;;;;90.73;34.47;;;;;;;7.26;100.00;98652.94;5029274;28;20210;-73
2022/01/09 02:28:07;;;;;;;91.93;32.97;;;;;;;7.24;100.00;98657.22;5046608;28;20204;-73
2022/01/09 02:30:34;;;;;;;96.10;32.60;;;;;;;7.26;100.00;98648.69;5047489;28;20254;-73
2022/01/09 02:33:02;;;;;;;92.83;32.23;;;;;;;7.28;100.00;98640.97;5046610;28;20200;-73
2022/01/09 02:35:29;;;;;;;88.53;32.93;;;;;;;7.31;100.00;98636.63;5043120;28;20216;-72
2022/01/09 02:37:57;;;;;;;91.20;32.83;;;;;;;7.35;100.00;98628.00;5033635;28;20198;-72
2022/01/09 02:40:24;;;;;;;92.60;31.70;;;;;;;7.38;100.00;98629.63;5032196;28;20200;-72
2022/01/09 02:42:52;;;;;;;83.07;32.57;;;;;;;7.42;100.00;98630.38;5046582;28;20246;-72
2022/01/09 02:45:22;;;;;;;83.83;31.53;;;;;;;7.43;100.00;98627.78;5048994;28;20626;-73
2022/01/09 02:47:49;;;;;;;88.37;33.63;;;;;;;7.44;100.00;98624.34;5049428;28;20200;-73
2022/01/09 02:50:30;;;;;;;81.30;29.17;;;;;;;7.42;100.00;98621.00;5048686;28;20200;-73
2022/01/09 02:53:00;;;;;;;90.03;29.83;;;;;;;7.45;100.00;98622.63;5048433;28;20668;-73
2022/01/09 02:55:29;;;;;;;71.63;29.63;;;;;;;7.38;100.00;98604.97;5036551;28;20332;-72
2022/01/09 02:57:58;;;;;;;79.83;28.97;;;;;;;7.44;100.00;98613.28;5036389;28;20197;-73
2022/01/09 03:00:28;;;;;;;73.40;29.63;;;;;;;7.37;100.00;98599.91;5034674;28;20747;-73
2022/01/09 03:02:55;;;;;;;81.20;28.27;;;;;;;7.40;100.00;98605.75;5032195;28;20574;-73
2022/01/09 03:05:23;;;;;;;81.10;29.53;;;;;;;7.46;100.00;98614.94;5030941;28;20263;-74
2022/01/09 03:07:51;;;;;;;84.67;29.60;;;;;;;7.44;100.00;98614.13;5040565;28;20666;-73
2022/01/09 03:10:20;;;;;;;76.00;29.17;;;;;;;7.47;100.00;98605.56;5031683;28;20197;-73
2022/01/09 03:12:50;;;;;;;87.33;28.90;;;;;;;7.46;100.00;98609.00;5036772;28;20205;-73
2022/01/09 03:15:18;;;;;;;79.97;28.90;;;;;;;7.45;100.00;98607.31;5045849;28;20249;-73
2022/01/09 03:17:45;;;;;;;84.83;29.57;;;;;;;7.48;100.00;98612.34;5039061;28;20201;-73
2022/01/09 03:20:15;;;;;;;89.37;31.63;;;;;;;7.44;100.00;98603.94;5039151;28;20220;-73
2022/01/09 03:22:42;;;;;;;91.30;28.87;;;;;;;7.53;100.00;98608.75;5030638;28;20288;-73
2022/01/09 03:25:10;;;;;;;94.60;30.27;;;;;;;7.52;100.00;98603.72;5037141;28;20212;-73
2022/01/09 03:27:40;;;;;;;81.97;30.90;;;;;;;7.55;100.00;98603.63;5040240;28;20258;-73
2022/01/09 03:30:09;;;;;;;79.83;28.60;;;;;;;7.55;100.00;98601.06;5035578;28;20275;-73
2022/01/09 03:32:37;;;;;;;88.53;29.63;;;;;;;7.55;100.00;98601.06;5047277;28;20197;-72
2022/01/09 03:35:05;;;;;;;81.60;28.37;;;;;;;7.43;100.00;98575.94;5047347;28;20210;-73
2022/01/09 03:37:31;;;;;;;97.20;30.63;;;;;;;7.56;100.00;98602.75;5052201;28;20572;-73
2022/01/09 03:39:58;;;;;;;95.07;30.50;;;;;;;7.57;100.00;98606.94;5052569;28;20197;-73
2022/01/09 03:42:25;;;;;;;99.27;32.07;;;;;;;7.59;100.00;98600.09;5045852;28;20205;-72
2022/01/09 03:44:53;;;;;;;94.53;29.50;;;;;;;7.53;100.00;98593.44;5043270;28;20677;-73
2022/01/09 03:47:20;;;;;;;83.27;28.97;;;;;;;7.50;100.00;98592.72;5050586;28;20631;-72
2022/01/09 03:49:47;;;;;;;97.87;29.83;;;;;;;7.40;100.00;98585.34;5043818;28;20197;-73
2022/01/09 03:52:14;;;;;;;89.20;27.33;;;;;;;7.36;100.00;98596.53;5044582;28;20292;-73
2022/01/09 03:54:41;;;;;;;90.30;30.70;;;;;;;7.37;100.00;98592.25;5036287;28;20201;-73
2022/01/09 03:57:08;;;;;;;91.83;29.57;;;;;;;7.36;100.00;98588.88;5051778;28;20301;-73
2022/01/09 03:59:35;;;;;;;89.27;26.23;;;;;;;7.36;100.00;98583.78;5041089;28;20258;-72
2022/01/09 04:02:03;;;;;;;86.83;27.23;;;;;;;7.32;100.00;98566.06;5048664;28;20201;-73
2022/01/09 04:04:30;;;;;;;85.87;27.90;;;;;;;7.40;100.00;98575.16;5049930;28;20214;-72
2022/01/09 04:06:57;;;;;;;87.77;27.53;;;;;;;7.41;100.00;98588.72;5043540;28;20283;-73
2022/01/09 04:09:37;;;;;;;77.70;26.23;;;;;;;7.43;100.00;98593.81;5051769;28;20211;-73
2022/01/09 04:12:06;;;;;;;72.00;26.17;;;;;;;7.46;100.00;98593.72;5047718;28;20200;-73
2022/01/09 04:14:34;;;;;;;84.57;28.37;;;;;;;7.50;100.00;98590.16;5050283;28;20201;-72
2022/01/09 04:17:01;;;;;;;86.20;28.60;;;;;;;7.49;100.00;98583.41;5042120;28;20685;-73
2022/01/09 04:19:29;;;;;;;77.10;27.47;;;;;;;7.53;100.00;98580.69;5041528;28;20203;-73
2022/01/09 04:21:56;;;;;;;84.63;28.03;;;;;;;7.55;100.00;98576.41;5049280;28;20557;-73
2022/01/09 04:24:23;;;;;;;73.17;26.27;;;;;;;7.57;100.00;98576.34;5038832;28;20194;-73
2022/01/09 04:26:50;;;;;;;77.63;26.60;;;;;;;7.58;100.00;98578.84;5037112;28;20204;-72
2022/01/09 04:29:17;;;;;;;89.23;28.83;;;;;;;7.59;100.00;98575.44;5044249;28;20197;-72
2022/01/09 04:31:44;;;;;;;79.40;26.93;;;;;;;7.64;100.00;98581.22;5049709;28;20209;-72
2022/01/09 04:34:10;;;;;;;74.23;27.40;;;;;;;7.66;100.00;98576.03;5041620;28;20201;-72
2022/01/09 04:36:39;;;;;;;66.30;24.87;;;;;;;7.66;100.00;98576.03;5049619;28;20208;-73
2022/01/09 04:39:06;;;;;;;75.47;26.53;;;;;;;7.51;100.00;98545.94;5049063;28;20196;-72
2022/01/09 04:41:32;;;;;;;62.97;27.50;;;;;;;7.67;100.00;98572.63;5048975;28;20197;-72
2022/01/09 04:43:59;;;;;;;66.17;27.80;;;;;;;7.66;100.00;98570.94;5045728;28;20806;-72
2022/01/09 04:46:35;;;;;;;66.80;26.57;;;;;;;7.63;100.00;98571.88;5040847;28;20209;-72
2022/01/09 04:49:02;;;;;;;76.63;28.37;;;;;;;7.65;100.00;98579.50;5037221;28;20201;-72
2022/01/09 04:51:29;;;;;;;67.90;27.43;;;;;;;7.63;100.00;98581.25;5039437;28;20197;-72
2022/01/09 04:53:57;;;;;;;65.57;27.57;;;;;;;7.61;100.00;98580.47;5039042;28;20197;-72
2022/01/09 04:56:24;;;;;;;69.47;25.53;;;;;;;7.61;100.00;98577.91;5050574;28;20233;-72
2022/01/09 04:58:51;;;;;;;63.07;25.77;;;;;;;7.57;100.00;98566.13;5051007;28;20197;-72
2022/01/09 05:01:17;;;;;;;77.63;27.43;;;;;;;7.58;100.00;98575.47;5049953;28;20224;-72
2022/01/09 05:03:44;;;;;;;66.00;25.83;;;;;;;7.59;100.00;98574.59;5051110;28;20204;-72
2022/01/09 05:06:11;;;;;;;60.23;25.83;;;;;;;7.62;100.00;98574.50;5043329;28;20193;-72
2022/01/09 05:08:38;;;;;;;70.57;26.53;;;;;;;7.63;100.00;98571.03;5032936;28;20209;-72
2022/01/09 05:11:06;;;;;;;65.33;25.10;;;;;;;7.62;100.00;98570.25;5035668;28;20211;-73
2022/01/09 05:13:34;;;;;;;53.40;25.93;;;;;;;7.64;100.00;98567.63;5040114;28;20593;-72
2022/01/09 05:16:01;;;;;;;58.83;25.00;;;;;;;7.62;100.00;98565.13;5042916;28;20270;-73
2022/01/09 05:18:27;;;;;;;58.33;25.20;;;;;;;7.65;100.00;98564.19;5050259;28;20621;-72
2022/01/09 05:20:54;;;;;;;51.57;23.70;;;;;;;7.66;100.00;98565.84;5050187;28;20359;-73
2022/01/09 05:23:21;;;;;;;63.03;26.13;;;;;;;7.65;100.00;98569.31;5044330;28;20263;-73
2022/01/09 05:25:48;;;;;;;60.43;25.90;;;;;;;7.68;100.00;98575.16;5038236;28;20685;-72
2022/01/09 05:28:16;;;;;;;58.53;24.83;;;;;;;7.67;100.00;98578.56;5033933;28;20225;-73
2022/01/09 05:30:43;;;;;;;58.77;25.53;;;;;;;7.66;100.00;98568.41;5042349;28;20201;-72
2022/01/09 05:33:10;;;;;;;53.80;24.40;;;;;;;7.68;100.00;98575.16;5049864;28;20205;-72
2022/01/09 05:35:37;;;;;;;55.17;24.03;;;;;;;7.68;100.00;98576.84;5041642;28;20198;-72
2022/01/09 05:38:03;;;;;;;48.63;22.17;;;;;;;7.68;100.00;98575.16;5047969;28;20192;-73
2022/01/09 05:40:30;;;;;;;58.60;25.23;;;;;;;7.66;100.00;98579.44;5049798;28;20207;-72
2022/01/09 05:42:57;;;;;;;54.13;23.83;;;;;;;7.65;100.00;98580.34;5040034;28;20217;-72
2022/01/09 05:45:25;;;;;;;51.70;24.03;;;;;;;7.63;100.00;98582.09;5044767;28;20201;-71
2022/01/09 05:47:52;;;;;;;60.07;25.33;;;;;;;7.60;100.00;98578.78;5044541;28;20201;-72
2022/01/09 05:50:19;;;;;;;51.03;23.03;;;;;;;7.58;100.00;98578.03;5039915;28;20226;-72
2022/01/09 05:52:46;;;;;;;54.47;25.27;;;;;;;7.57;100.00;98576.34;5041161;28;20274;-72
2022/01/09 05:55:13;;;;;;;50.93;24.77;;;;;;;7.57;100.00;98581.44;5035987;28;20201;-73
2022/01/09 05:57:39;;;;;;;46.37;21.17;;;;;;;7.53;100.00;98574.78;5048763;28;20224;-73
2022/01/09 06:00:08;;;;;;;52.23;23.67;;;;;;;7.48;100.00;98558.78;5049706;28;20814;-73
2022/01/09 06:02:36;;;;;;;51.60;23.63;;;;;;;7.57;100.00;98576.34;5042058;28;20200;-73
2022/01/09 06:05:03;;;;;;;55.43;25.07;;;;;;;7.58;100.00;98575.47;5048685;28;20196;-73
2022/01/09 06:07:30;;;;;;;55.60;24.37;;;;;;;7.58;100.00;98570.38;5049385;28;20209;-73
2022/01/09 06:09:56;;;;;;;48.20;21.80;;;;;;;7.55;100.00;98568.75;5047892;28;20201;-73
2022/01/09 06:12:23;;;;;;;48.23;24.23;;;;;;;7.62;100.00;98575.34;5049189;28;20196;-73
2022/01/09 06:14:51;;;;;;;46.90;22.63;;;;;;;7.60;100.00;98566.03;5049763;28;20219;-73
2022/01/09 06:17:18;;;;;;;54.40;22.83;;;;;;;7.66;100.00;98565.84;5049291;28;20300;-73
2022/01/09 06:19:46;;;;;;;47.73;22.50;;;;;;;7.68;100.00;98569.19;5049628;28;20618;-72
2022/01/09 06:22:17;;;;;;;51.67;22.63;;;;;;;7.66;100.00;98568.41;5049179;28;20208;-73
2022/01/09 06:24:45;;;;;;;55.53;23.20;;;;;;;7.67;100.00;98570.06;5049443;28;20561;-72
2022/01/09 06:27:12;;;;;;;42.93;21.13;;;;;;;7.58;100.00;98557.63;5042243;28;20193;-72
2022/01/09 06:29:38;;;;;;;45.47;23.33;;;;;;;7.71;100.00;98569.09;5031183;28;20197;-73
2022/01/09 06:32:06;;;;;;;51.03;25.17;;;;;;;7.67;100.00;98560.72;5048162;28;20203;-72
2022/01/09 06:34:33;;;;;;;47.37;22.47;;;;;;;7.67;100.00;98567.53;5049306;28;20201;-73
2022/01/09 06:37:02;;;;;;;56.53;24.33;;;;;;;7.73;100.00;98569.88;5033423;28;20279;-72
2022/01/09 06:39:29;;;;;;;53.03;25.10;;;;;;;7.75;100.00;98570.69;5036789;28;20197;-72
2022/01/09 06:41:56;;;;;;;53.23;24.70;;;;;;;7.77;100.00;98559.53;5049607;28;20647;-72
2022/01/09 06:44:23;;;;;;;49.70;23.80;;;;;;;7.75;100.00;98556.22;5042317;28;20549;-72
2022/01/09 06:46:50;;;;;;;53.73;22.47;;;;;;;7.76;100.00;98557.84;5043630;28;20205;-72
2022/01/09 06:49:17;;;;;;;45.07;21.33;;;;;;;7.77;100.00;98558.69;5040112;28;20679;-72
2022/01/09 06:51:44;;;;;;;47.60;23.53;;;;;;;7.77;100.00;98548.50;5043237;28;20211;-73
2022/01/09 06:54:13;;;;;;;45.13;22.90;;;;;;;7.79;100.00;98546.72;5039372;28;20205;-73
2022/01/09 06:56:40;;;;;;;46.07;21.57;;;;;;;7.81;100.00;98534.75;5035034;28;20308;-72
2022/01/09 06:59:07;;;;;;;47.07;23.47;;;;;;;7.84;100.00;98529.56;5038222;28;20212;-72
2022/01/09 07:01:34;;;;;;;43.97;22.00;;;;;;;7.84;100.00;98529.56;5038831;28;20635;-72
2022/01/09 07:04:00;;;;;;;41.90;21.93;;;;;;;7.86;100.00;98535.44;5039866;28;20267;-72
2022/01/09 07:06:27;;;;;;;37.73;19.23;;;;;;;7.86;100.00;98530.31;5035800;28;20201;-72
2022/01/09 07:08:55;;;;;;;35.10;19.30;;;;;;;7.89;100.00;98540.44;5044978;28;20204;-73
2022/01/09 07:11:23;;;;;;;39.50;19.10;;;;;;;7.90;100.00;98539.56;5044350;28;20207;-71
2022/01/09 07:13:50;;;;;;;39.97;22.90;;;;;;;7.90;100.00;98537.00;5040848;28;20209;-72
2022/01/09 07:16:17;;;;;;;46.07;23.00;;;;;;;7.93;100.00;98529.25;5046687;28;20204;-72
2022/01/09 07:18:44;;;;;;;42.03;21.13;;;;;;;7.91;100.00;98531.88;5042027;28;20204;-73
2022/01/09 07:21:10;;;;;;;40.93;19.97;;;;;;;7.92;100.00;98528.41;5046784;28;20231;-73
2022/01/09 07:23:37;;;;;;;41.30;18.97;;;;;;;7.91;100.00;98525.91;5040705;28;20685;-72
2022/01/09 07:26:04;;;;;;;38.23;19.13;;;;;;;7.86;100.00;98520.13;5038750;28;20278;-73
2022/01/09 07:28:32;;;;;;;39.37;20.20;;;;;;;7.84;100.00;98532.09;5039064;28;20197;-71
2022/01/09 07:30:59;;;;;;;46.37;25.33;;;;;;;7.85;100.00;98534.59;5042121;28;20687;-72
2022/01/09 07:33:26;;;;;;;45.40;21.17;;;;;;;7.84;100.00;98529.56;5044846;28;20244;-73
2022/01/09 07:35:53;;;;;;;37.83;20.30;;;;;;;7.92;100.00;98535.22;5038148;28;20256;-63
2022/01/09 07:38:20;;;;;;;34.10;19.73;;;;;;;7.91;100.00;98531.03;5042012;28;20315;-64
2022/01/09 07:40:47;;;;;;;33.97;18.00;;;;;;;7.86;100.00;98525.22;5046877;28;20208;-61
2022/01/09 07:43:14;;;;;;;43.70;19.13;;;;;;;7.99;100.00;98534.13;5040307;28;20291;-61
2022/01/09 07:45:42;;;;;;;34.93;19.30;;;;;;;7.89;100.00;98497.06;5042323;28;20220;-60
2022/01/09 07:48:09;;;;;;;31.10;18.07;;;;;;;8.07;100.00;98514.31;5037267;28;20665;-61
2022/01/09 07:50:36;;;;;;;36.93;19.27;;;;;;;8.10;100.00;98526.97;5047678;28;20204;-60
2022/01/09 07:53:03;;;;;;;44.43;19.30;;;;;;;8.08;100.00;98522.81;5040796;28;20205;-65
2022/01/09 07:55:30;;;;;;;37.07;19.23;;;;;;;8.09;100.00;98530.41;5044203;28;20708;-66
2022/01/09 07:57:57;;;;;;;40.63;21.20;;;;;;;8.11;100.00;98532.91;5042210;28;20221;-65
2022/01/09 08:00:24;;;;;;;53.53;24.07;;;;;;;8.14;100.00;98536.16;5036576;28;20254;-65
2022/01/09 08:02:52;;;;;;;81.37;30.97;;;;;;;8.17;100.00;98533.53;5047966;28;20207;-65
2022/01/09 08:05:19;;;;;;;56.30;25.67;;;;;;;8.19;100.00;98538.56;5041075;28;20206;-65
2022/01/09 08:07:46;;;;;;;49.87;23.50;;;;;;;8.16;100.00;98520.81;5045094;28;20201;-65
2022/01/09 08:10:13;;;;;;;69.77;32.50;;;;;;;8.12;100.00;98512.41;5039674;28;20239;-64
2022/01/09 09:06:54;;;;;;;31.67;16.37;;;;;;;8.46;100.00;98489.13;5061788;28;20723;-69
2022/01/09 09:09:21;;;;;;;39.55;22.15;;;;;;;8.47;100.00;98482.28;5054290;28;20438;-73
2022/01/09 09:11:48;;;;;;;35.30;19.30;;;;;;;8.53;100.00;98482.88;5055765;28;20201;-72
2022/01/09 09:14:15;;;;;;;35.63;19.43;;;;;;;8.52;100.00;98477.84;5051819;28;20209;-72
2022/01/09 09:16:42;;;;;;;42.83;21.53;;;;;;;8.49;100.00;98476.25;5051710;28;20223;-72
2022/01/09 09:19:08;;;;;;;37.07;20.87;;;;;;;8.54;100.00;98465.84;5051601;28;20196;-72
2022/01/09 09:21:35;;;;;;;40.17;23.10;;;;;;;8.59;100.00;98471.63;5054152;28;20569;-72
2022/01/09 09:24:04;;;;;;;46.97;22.03;;;;;;;8.62;100.00;98463.84;5051569;28;20201;-73
2022/01/09 09:26:31;;;;;;;40.50;20.50;;;;;;;8.59;100.00;98464.81;5067983;28;20196;-71
2022/01/09 09:28:57;;;;;;;48.03;23.47;;;;;;;8.61;100.00;98452.81;5071230;28;20204;-72
2022/01/09 09:31:25;;;;;;;34.60;21.23;;;;;;;8.62;100.00;98443.41;5071136;28;20196;-72
2022/01/09 09:33:52;;;;;;;34.70;19.90;;;;;;;8.66;100.00;98450.91;5060180;28;20212;-72
2022/01/09 09:36:21;;;;;;;35.83;19.63;;;;;;;8.64;100.00;98450.13;5048190;28;20621;-72
2022/01/09 09:38:48;;;;;;;33.23;19.70;;;;;;;8.63;100.00;98455.28;5056591;28;20217;-71
2022/01/09 09:41:16;;;;;;;31.90;19.20;;;;;;;8.60;100.00;98455.41;5055928;28;20219;-72
2022/01/09 09:43:43;;;;;;;39.83;23.53;;;;;;;8.63;100.00;98470.59;5060519;28;20718;-72
2022/01/09 09:46:10;;;;;;;37.00;21.13;;;;;;;8.51;100.00;98450.63;5063120;28;20208;-72
2022/01/09 09:48:37;;;;;;;31.93;20.20;;;;;;;8.53;100.00;98443.78;5067840;28;20664;-72
2022/01/09 09:51:04;;;;;;;34.53;18.93;;;;;;;8.56;100.00;98464.09;5070685;28;20203;-72
2022/01/09 09:53:31;;;;;;;43.73;23.80;;;;;;;8.56;100.00;98453.88;5055487;28;20196;-72
2022/01/09 09:55:57;;;;;;;38.63;21.03;;;;;;;8.56;100.00;98459.81;5060324;28;20589;-72
2022/01/09 09:58:27;;;;;;;29.57;17.93;;;;;;;8.51;100.00;98450.63;5067681;28;20222;-72
2022/01/09 10:00:54;;;;;;;34.13;19.47;;;;;;;8.51;100.00;98435.31;5066406;28;20281;-72
2022/01/09 10:03:27;;;;;;;37.97;20.57;;;;;;;8.55;100.00;98426.66;5048525;28;20200;-72
2022/01/09 10:05:54;;;;;;;37.23;19.80;;;;;;;8.55;100.00;98419.00;5046940;28;20672;-72
2022/01/09 10:08:21;;;;;;;34.67;19.43;;;;;;;8.58;100.00;98413.75;5056530;28;20223;-72
2022/01/09 10:10:48;;;;;;;36.93;18.97;;;;;;;8.60;100.00;98414.53;5070673;28;20298;-71
2022/01/09 10:13:16;;;;;;;35.33;18.90;;;;;;;8.71;100.00;98427.75;5070236;28;20200;-72
2022/01/09 10:15:48;;;;;;;27.00;16.73;;;;;;;8.68;100.00;98422.75;5069821;28;20238;-72
2022/01/09 10:18:35;;;;;;;30.27;16.03;;;;;;;8.75;100.00;98425.03;5069150;28;20211;-72
2022/01/09 10:21:06;;;;;;;26.23;16.90;;;;;;;8.79;100.00;98426.53;5069672;28;20223;-72
2022/01/09 10:23:33;;;;;;;26.00;18.53;;;;;;;8.76;100.00;98426.66;5070522;28;20200;-72
2022/01/09 10:26:10;;;;;;;27.70;17.70;;;;;;;8.78;100.00;98424.06;5070641;28;20195;-71
2022/01/09 10:28:39;;;;;;;32.53;17.57;;;;;;;8.80;100.00;98419.72;5071130;28;20710;-72
2022/01/09 10:31:16;;;;;;;44.30;24.03;;;;;;;8.81;100.00;98421.38;5070301;28;20282;-72
2022/01/09 10:34:01;;;;;;;22.17;14.97;;;;;;;8.78;100.00;98409.56;5068718;28;20199;-72
2022/01/09 10:36:40;;;;;;;23.90;16.33;;;;;;;8.74;100.00;98381.63;5067042;28;20294;-72
2022/01/09 10:39:09;;;;;;;20.57;13.43;;;;;;;8.80;100.00;98392.44;5070231;28;20224;-72
2022/01/09 10:41:50;;;;;;;26.63;14.77;;;;;;;8.80;100.00;98396.72;5070502;28;20200;-72
2022/01/09 10:44:18;;;;;;;22.70;13.87;;;;;;;8.82;100.00;98389.84;5074776;28;20576;-72
2022/01/09 10:46:58;;;;;;;13.10;10.07;;;;;;;8.83;100.00;98386.38;5074652;28;20664;-72
2022/01/09 10:49:36;;;;;;;10.87;8.93;;;;;;;8.84;100.00;98377.81;5074607;28;20196;-72
2022/01/09 10:52:17;;;;;;;12.87;10.70;;;;;;;8.91;100.00;98382.66;5074199;28;20203;-71
2022/01/09 10:54:46;;;;;;;12.27;10.03;;;;;;;8.85;100.00;98379.50;5074535;28;20207;-72
2022/01/09 10:57:15;;;;;;;12.67;9.33;;;;;;;8.92;100.00;98370.69;5074000;28;20228;-72
2022/01/09 10:59:43;;;;;;;11.33;8.67;;;;;;;8.93;100.00;98367.22;5074379;28;20571;-72
2022/01/09 11:02:12;;;;;;;11.93;8.70;;;;;;;8.93;100.00;98372.34;5074118;28;20203;-71
2022/01/09 11:04:40;;;;;;;11.77;9.57;;;;;;;8.95;100.00;98365.44;5074435;28;20196;-72
2022/01/09 11:07:08;;;;;;;20.77;10.97;;;;;;;8.98;100.00;98361.94;5074117;28;20196;-72
2022/01/09 11:09:35;;;;;;;14.03;9.17;;;;;;;8.96;100.00;98349.22;5053918;28;20252;-72
2022/01/09 11:12:03;;;;;;;12.03;10.30;;;;;;;8.94;100.00;98348.47;5061074;28;20295;-72
2022/01/09 11:14:35;;;;;;;8.73;7.83;;;;;;;8.96;100.00;98339.84;5067439;28;20196;-72
2022/01/09 11:17:05;;;;;;;10.97;8.07;;;;;;;8.98;100.00;98344.91;5062352;28;20290;-72
2022/01/09 11:19:34;;;;;;;10.20;8.60;;;;;;;8.94;100.00;98343.34;5073966;28;20549;-72
2022/01/09 11:22:03;;;;;;;9.53;8.57;;;;;;;8.93;100.00;98341.69;5073886;28;20199;-72
2022/01/09 11:25:02;;;;;;;10.53;8.77;;;;;;;8.82;100.00;98328.53;5073782;28;20552;-72
2022/01/09 11:27:46;;;;;;;10.90;9.00;;;;;;;8.88;100.00;98333.38;5065125;28;20197;-71
2022/01/09 11:30:19;;;;;;;12.93;10.47;;;;;;;8.87;100.00;98334.25;5073803;28;20198;-72
2022/01/09 11:33:00;;;;;;;15.70;10.20;;;;;;;8.90;100.00;98326.47;5059292;28;20236;-72
2022/01/09 11:35:39;;;;;;;10.60;8.30;;;;;;;8.84;100.00;98326.72;5057084;28;20236;-71
2022/01/09 11:38:15;;;;;;;10.40;8.93;;;;;;;8.82;100.00;98308.06;5063975;28;20576;-72
2022/01/09 11:40:43;;;;;;;14.93;9.67;;;;;;;8.93;100.00;98321.22;5053359;28;20192;-72
2022/01/09 11:43:13;;;;;;;12.30;10.03;;;;;;;8.92;100.00;98319.56;5065497;28;20203;-72
2022/01/09 11:45:46;;;;;;;17.33;11.80;;;;;;;8.87;100.00;98311.25;5062127;28;20196;-72
2022/01/09 11:48:15;;;;;;;17.97;11.23;;;;;;;8.89;100.00;98312.84;5066325;28;20192;-72
2022/01/09 11:51:11;;;;;;;18.53;10.73;;;;;;;8.80;100.00;98309.84;5061669;28;20216;-72
2022/01/09 11:54:04;;;;;;;13.97;10.57;;;;;;;8.81;100.00;98301.28;5071251;28;20244;-71
2022/01/09 11:56:48;;;;;;;14.97;10.43;;;;;;;8.89;100.00;98305.19;5069180;28;20201;-71
2022/01/09 11:59:27;;;;;;;12.27;9.33;;;;;;;8.92;100.00;98304.22;5073386;28;20216;-72
2022/01/09 12:01:56;;;;;;;12.60;10.17;;;;;;;8.83;100.00;98294.38;5073410;28;20682;-72
2022/01/09 12:04:57;;;;;;;12.37;11.00;;;;;;;8.88;100.00;98301.00;5073066;28;20202;-72
2022/01/09 12:08:06;;;;;;;13.17;9.97;;;;;;;8.88;100.00;98297.59;5004067;28;20297;-72
2022/01/09 12:10:37;;;;;;;11.23;9.10;;;;;;;8.82;100.00;98291.00;5073018;28;20287;-72
2022/01/09 12:13:05;;;;;;;17.13;10.80;;;;;;;8.73;100.00;98278.59;5073040;28;20200;-72
2022/01/09 12:15:38;;;;;;;13.67;9.40;;;;;;;8.78;100.00;98291.19;5073357;28;20523;-72
2022/01/09 12:18:07;;;;;;;14.00;9.30;;;;;;;8.82;100.00;98302.97;5060877;28;20329;-72